To NAV CANADA Home Page Login to a new session Search on AWWS site Feedback and Comments Disclaimer Vers la page française équivalente Tips FAQ What's new on the site To the Forecasts and Observations / NOTAM section To "File a Flight Plan" website Publications and other links Update of the User's profile FIC Telephone Numbers My Weather Data Folder Route Weather Data Regional Weather Data Local Weather Data To the Forecasts and Observations / NOTAM section
Request Generated 05/23/2015 at 13:19:02 UTC . Weather information available at that time is displayed.

METAR/TAF

SAINT JOHN/NB    

METAR CYSJ 231300Z 28007KT 5SM -SHRA OVC006 02/02 A2999 RMK SF8
SLP158=
SPECI CYSJ 231246Z 27003KT 5SM -SHRA OVC008 02/01 A2999 RMK SF8
SLP158=
SPECI CYSJ 231234Z 27006KT 220V290 2SM -SHSN BKN005 OVC012 02/01
A2999 RMK SF5SC3 SLP158=
SPECI CYSJ 231208Z 25007KT 5SM -SHSN OVC012 02/01 A2999 RMK SC8
SLP158=
METAR CYSJ 231200Z 24008G15KT 220V280 5SM -SHRASN OVC012 02/01 A2999
RMK SC8 SLP158=
METAR CYSJ 231100Z 29003KT 250V310 10SM -SHRA BKN016 BKN060 05/02
A2997 RMK SC5SC2 SLP151=

TAF AMD CYSJ 231245Z 2312/2324 27010KT P6SM SCT005 OVC015 TEMPO
2312/2315 2SM -SHRASN BR BKN005 OVC020
FM231500 30012G22KT P6SM BKN030
FM232000 30015G25KT P6SM SCT060
BECMG 2322/2324 28010G20KT
RMK NXT FCST BY 231800Z=
Your time UTC time
Weather data provided by Environment Canada and NAV CANADA